SWA4253 KPHX-KLAX
Flight info
| Callsign | SWA4253 |
|---|---|
| Flight time | 1h 14m |
| Altitude | 32000 |
| Route | KEENS3 WLVRN ESTWD HLYWD1 |
| Aircraft | B738/M-SDE2E3FGHIRWXY/LB1 |
Departure
| Time | 2026-05-05 17:33 |
|---|---|
| Airport | Phoenix Sky Harbor International Airport (KPHX) |
Arrival
| Time | 2026-05-05 18:48 |
|---|---|
| Airport | Los Angeles International Airport (KLAX) |
| Time | Latitude | Longitude | Altitude | Speed | Heading |
|---|---|---|---|---|---|
| 2026-05-05 17:11 | 33.43358 | -111.99476 | 1122 ft | 0 kts | 68° |
| 2026-05-05 17:25 | 33.43358 | -111.99477 | 1130 ft | 2 kts | 68° |
| 2026-05-05 17:26 | 33.43354 | -111.99497 | 1135 ft | 2 kts | 91° |
| 2026-05-05 17:26 | 33.43358 | -111.99516 | 1131 ft | 2 kts | 129° |
| 2026-05-05 17:26 | 33.43371 | -111.99528 | 1135 ft | 2 kts | 158° |
| 2026-05-05 17:26 | 33.43385 | -111.99533 | 1134 ft | 1 kts | 174° |
| 2026-05-05 17:27 | 33.43388 | -111.99533 | 1133 ft | 0 kts | 178° |
| 2026-05-05 17:29 | 33.43387 | -111.99533 | 1133 ft | 0 kts | 178° |
| 2026-05-05 17:29 | 33.43367 | -111.99533 | 1135 ft | 6 kts | 180° |
| 2026-05-05 17:29 | 33.43303 | -111.99540 | 1130 ft | 12 kts | 194° |
| 2026-05-05 17:29 | 33.43221 | -111.99529 | 1133 ft | 13 kts | 120° |
| 2026-05-05 17:30 | 33.43213 | -111.99421 | 1131 ft | 13 kts | 91° |
| 2026-05-05 17:30 | 33.43200 | -111.99365 | 1135 ft | 0 kts | 132° |
| 2026-05-05 17:31 | 33.43192 | -111.99359 | 1134 ft | 4 kts | 152° |
| 2026-05-05 17:32 | 33.43139 | -111.99351 | 1137 ft | 13 kts | 184° |
| 2026-05-05 17:32 | 33.43104 | -111.99407 | 1135 ft | 6 kts | 268° |
| 2026-05-05 17:32 | 33.43103 | -111.99513 | 1134 ft | 33 kts | 270° |
| 2026-05-05 17:32 | 33.43105 | -112.00030 | 1133 ft | 90 kts | 270° |
| 2026-05-05 17:33 | 33.43106 | -112.00975 | 1130 ft | 135 kts | 270° |
| 2026-05-05 17:33 | 33.43109 | -112.02224 | 1270 ft | 157 kts | 270° |
| 2026-05-05 17:33 | 33.43097 | -112.03535 | 1789 ft | 158 kts | 268° |
| 2026-05-05 17:33 | 33.43061 | -112.04874 | 2252 ft | 157 kts | 266° |
| 2026-05-05 17:34 | 33.43020 | -112.06204 | 2692 ft | 167 kts | 265° |
| 2026-05-05 17:34 | 33.42743 | -112.07596 | 3228 ft | 186 kts | 248° |
| 2026-05-05 17:34 | 33.42245 | -112.09155 | 3473 ft | 213 kts | 249° |
| 2026-05-05 17:34 | 33.41717 | -112.10890 | 3878 ft | 226 kts | 249° |
| 2026-05-05 17:35 | 33.41177 | -112.12674 | 4557 ft | 229 kts | 249° |
| 2026-05-05 17:35 | 33.40609 | -112.14545 | 4898 ft | 249 kts | 249° |
| 2026-05-05 17:35 | 33.40003 | -112.16541 | 5552 ft | 260 kts | 249° |
| 2026-05-05 17:35 | 33.39386 | -112.18593 | 6447 ft | 260 kts | 251° |
| 2026-05-05 17:36 | 33.39185 | -112.20762 | 7266 ft | 269 kts | 272° |
| 2026-05-05 17:36 | 33.39461 | -112.22999 | 8107 ft | 274 kts | 277° |
| 2026-05-05 17:36 | 33.39807 | -112.25258 | 8918 ft | 278 kts | 277° |
| 2026-05-05 17:36 | 33.40167 | -112.27550 | 9728 ft | 283 kts | 277° |
| 2026-05-05 17:37 | 33.40525 | -112.29845 | 10446 ft | 289 kts | 277° |
| 2026-05-05 17:37 | 33.40776 | -112.31488 | 10598 ft | 306 kts | 277° |
| 2026-05-05 17:37 | 33.41299 | -112.34968 | 10923 ft | 335 kts | 277° |
| 2026-05-05 17:37 | 33.41715 | -112.37743 | 11572 ft | 342 kts | 277° |
| 2026-05-05 17:38 | 33.42137 | -112.40557 | 12393 ft | 344 kts | 276° |
| 2026-05-05 17:38 | 33.42559 | -112.43394 | 13222 ft | 346 kts | 276° |
| 2026-05-05 17:38 | 33.42982 | -112.46246 | 13979 ft | 349 kts | 276° |
| 2026-05-05 17:38 | 33.43406 | -112.49126 | 14689 ft | 352 kts | 275° |
| 2026-05-05 17:39 | 33.43831 | -112.52013 | 15388 ft | 354 kts | 276° |
| 2026-05-05 17:39 | 33.44258 | -112.54922 | 16099 ft | 356 kts | 275° |
| 2026-05-05 17:39 | 33.44688 | -112.57861 | 16790 ft | 359 kts | 275° |
| 2026-05-05 17:39 | 33.45084 | -112.60815 | 17463 ft | 360 kts | 271° |
| 2026-05-05 17:40 | 33.45207 | -112.63773 | 18140 ft | 360 kts | 266° |
| 2026-05-05 17:40 | 33.45197 | -112.66778 | 18774 ft | 362 kts | 265° |
| 2026-05-05 17:40 | 33.45178 | -112.69783 | 19492 ft | 361 kts | 265° |
| 2026-05-05 17:40 | 33.45188 | -112.72789 | 20230 ft | 359 kts | 266° |
| 2026-05-05 17:41 | 33.45219 | -112.75774 | 20906 ft | 359 kts | 266° |
| 2026-05-05 17:41 | 33.45277 | -112.78770 | 21517 ft | 362 kts | 269° |
| 2026-05-05 17:41 | 33.45812 | -112.81756 | 22111 ft | 374 kts | 283° |
| 2026-05-05 17:41 | 33.46778 | -112.84669 | 22704 ft | 377 kts | 285° |
| 2026-05-05 17:42 | 33.47804 | -112.87542 | 23530 ft | 371 kts | 285° |
| 2026-05-05 17:42 | 33.48819 | -112.90311 | 24638 ft | 353 kts | 284° |
| 2026-05-05 17:42 | 33.49780 | -112.92936 | 25726 ft | 335 kts | 282° |
| 2026-05-05 17:42 | 33.50682 | -112.95419 | 26799 ft | 318 kts | 281° |
| 2026-05-05 17:43 | 33.51545 | -112.97839 | 27467 ft | 315 kts | 280° |
| 2026-05-05 17:43 | 33.52394 | -113.00272 | 27809 ft | 319 kts | 279° |
| 2026-05-05 17:43 | 33.53250 | -113.02744 | 28187 ft | 322 kts | 279° |
| 2026-05-05 17:43 | 33.54114 | -113.05236 | 28660 ft | 323 kts | 279° |
| 2026-05-05 17:44 | 33.54979 | -113.07723 | 29033 ft | 327 kts | 279° |
| 2026-05-05 17:44 | 33.55858 | -113.10252 | 29489 ft | 327 kts | 279° |
| 2026-05-05 17:44 | 33.56732 | -113.12756 | 30082 ft | 324 kts | 278° |
| 2026-05-05 17:44 | 33.57589 | -113.15219 | 30392 ft | 326 kts | 278° |
| 2026-05-05 17:45 | 33.58468 | -113.17756 | 30679 ft | 329 kts | 278° |
| 2026-05-05 17:45 | 33.59345 | -113.20288 | 31036 ft | 330 kts | 278° |
| 2026-05-05 17:45 | 33.60232 | -113.22844 | 31378 ft | 331 kts | 278° |
| 2026-05-05 17:45 | 33.61118 | -113.25402 | 31694 ft | 333 kts | 278° |
| 2026-05-05 17:46 | 33.61709 | -113.27108 | 31888 ft | 334 kts | 278° |
| 2026-05-05 17:46 | 33.63524 | -113.32379 | 31977 ft | 349 kts | 279° |
| 2026-05-05 17:47 | 33.65415 | -113.37874 | 31992 ft | 364 kts | 279° |
| 2026-05-05 17:47 | 33.67386 | -113.43586 | 32007 ft | 373 kts | 280° |
| 2026-05-05 17:48 | 33.69384 | -113.49360 | 31998 ft | 376 kts | 281° |
| 2026-05-05 17:48 | 33.71385 | -113.55161 | 32012 ft | 377 kts | 281° |
| 2026-05-05 17:49 | 33.73384 | -113.60976 | 31998 ft | 375 kts | 281° |
| 2026-05-05 17:49 | 33.75356 | -113.66729 | 31985 ft | 374 kts | 281° |
| 2026-05-05 17:50 | 33.77328 | -113.72498 | 31973 ft | 373 kts | 281° |
| 2026-05-05 17:50 | 33.79298 | -113.78273 | 31958 ft | 373 kts | 281° |
| 2026-05-05 17:51 | 33.81268 | -113.84063 | 31931 ft | 374 kts | 282° |
| 2026-05-05 17:51 | 33.83234 | -113.89849 | 31908 ft | 375 kts | 282° |
| 2026-05-05 17:52 | 33.85207 | -113.95664 | 31913 ft | 376 kts | 282° |
| 2026-05-05 17:52 | 33.87187 | -114.01511 | 31907 ft | 378 kts | 282° |
| 2026-05-05 17:53 | 33.89170 | -114.07374 | 31907 ft | 379 kts | 283° |
| 2026-05-05 17:53 | 33.90969 | -114.13314 | 31895 ft | 372 kts | 275° |
| 2026-05-05 17:54 | 33.91995 | -114.19359 | 31914 ft | 372 kts | 273° |
| 2026-05-05 17:54 | 33.92965 | -114.25499 | 31898 ft | 374 kts | 273° |
| 2026-05-05 17:55 | 33.93974 | -114.31669 | 31907 ft | 377 kts | 274° |
| 2026-05-05 17:55 | 33.95014 | -114.37886 | 31904 ft | 379 kts | 274° |
| 2026-05-05 17:56 | 33.96064 | -114.44132 | 31896 ft | 381 kts | 274° |
| 2026-05-05 17:56 | 33.97116 | -114.50404 | 31897 ft | 382 kts | 275° |
| 2026-05-05 17:57 | 33.98169 | -114.56696 | 31899 ft | 383 kts | 275° |
| 2026-05-05 17:57 | 33.99216 | -114.62983 | 31906 ft | 383 kts | 275° |
| 2026-05-05 17:58 | 34.00261 | -114.69275 | 31910 ft | 384 kts | 275° |
| 2026-05-05 17:58 | 34.01301 | -114.75554 | 31905 ft | 384 kts | 275° |
| 2026-05-05 17:59 | 34.02344 | -114.81882 | 31905 ft | 384 kts | 275° |
| 2026-05-05 17:59 | 34.03579 | -114.88153 | 31918 ft | 390 kts | 283° |
| 2026-05-05 18:00 | 34.05172 | -114.94369 | 31914 ft | 384 kts | 275° |
| 2026-05-05 18:00 | 34.05614 | -115.00743 | 31908 ft | 381 kts | 268° |
| 2026-05-05 18:01 | 34.06046 | -115.07136 | 31903 ft | 387 kts | 276° |
| 2026-05-05 18:01 | 34.07138 | -115.13506 | 31908 ft | 389 kts | 277° |
| 2026-05-05 18:02 | 34.08257 | -115.19906 | 31909 ft | 390 kts | 277° |
| 2026-05-05 18:02 | 34.09161 | -115.26167 | 31917 ft | 392 kts | 277° |
| 2026-05-05 18:03 | 34.10319 | -115.32618 | 31905 ft | 394 kts | 277° |
| 2026-05-05 18:03 | 34.11459 | -115.39091 | 31906 ft | 394 kts | 277° |
| 2026-05-05 18:04 | 34.12549 | -115.45581 | 31902 ft | 394 kts | 277° |
| 2026-05-05 18:04 | 34.13613 | -115.52035 | 31912 ft | 394 kts | 277° |
| 2026-05-05 18:05 | 34.14683 | -115.58548 | 31903 ft | 395 kts | 277° |
| 2026-05-05 18:05 | 34.15750 | -115.65061 | 31902 ft | 396 kts | 277° |
| 2026-05-05 18:06 | 34.16187 | -115.71610 | 31903 ft | 390 kts | 262° |
| 2026-05-05 18:06 | 34.15556 | -115.78108 | 31911 ft | 389 kts | 261° |
| 2026-05-05 18:07 | 34.14895 | -115.84594 | 31938 ft | 389 kts | 261° |
| 2026-05-05 18:07 | 34.14267 | -115.90951 | 31945 ft | 370 kts | 261° |
| 2026-05-05 18:08 | 34.13671 | -115.97055 | 31975 ft | 365 kts | 261° |
| 2026-05-05 18:08 | 34.13375 | -116.00073 | 31720 ft | 369 kts | 261° |
| 2026-05-05 18:08 | 34.13076 | -116.03123 | 31476 ft | 363 kts | 261° |
| 2026-05-05 18:08 | 34.12779 | -116.06148 | 31109 ft | 361 kts | 261° |
| 2026-05-05 18:09 | 34.12484 | -116.09145 | 30768 ft | 358 kts | 262° |
| 2026-05-05 18:09 | 34.12190 | -116.12127 | 30414 ft | 356 kts | 262° |
| 2026-05-05 18:09 | 34.11896 | -116.15094 | 30055 ft | 355 kts | 262° |
| 2026-05-05 18:09 | 34.11604 | -116.18041 | 29601 ft | 353 kts | 262° |
| 2026-05-05 18:10 | 34.11313 | -116.20968 | 29222 ft | 350 kts | 262° |
| 2026-05-05 18:10 | 34.11024 | -116.23880 | 28826 ft | 347 kts | 262° |
| 2026-05-05 18:10 | 34.10736 | -116.26760 | 28454 ft | 344 kts | 262° |
| 2026-05-05 18:10 | 34.10449 | -116.29621 | 28074 ft | 342 kts | 262° |
| 2026-05-05 18:11 | 34.10153 | -116.32487 | 27324 ft | 350 kts | 262° |
| 2026-05-05 18:11 | 34.09848 | -116.35346 | 26954 ft | 347 kts | 262° |
| 2026-05-05 18:11 | 34.09532 | -116.38276 | 26544 ft | 345 kts | 262° |
| 2026-05-05 18:11 | 34.09229 | -116.41094 | 26157 ft | 343 kts | 262° |
| 2026-05-05 18:12 | 34.08920 | -116.43960 | 25814 ft | 341 kts | 262° |
| 2026-05-05 18:12 | 34.08615 | -116.46795 | 25459 ft | 340 kts | 262° |
| 2026-05-05 18:12 | 34.08312 | -116.49608 | 25119 ft | 338 kts | 262° |
| 2026-05-05 18:12 | 34.08010 | -116.52413 | 24772 ft | 336 kts | 263° |
| 2026-05-05 18:13 | 34.07712 | -116.55177 | 24438 ft | 327 kts | 263° |
| 2026-05-05 18:13 | 34.07418 | -116.57884 | 24102 ft | 326 kts | 263° |
| 2026-05-05 18:13 | 34.07137 | -116.60591 | 23727 ft | 326 kts | 264° |
| 2026-05-05 18:13 | 34.06886 | -116.63280 | 23317 ft | 326 kts | 264° |
| 2026-05-05 18:14 | 34.06640 | -116.65989 | 22939 ft | 324 kts | 264° |
| 2026-05-05 18:14 | 34.06395 | -116.68686 | 22590 ft | 322 kts | 264° |
| 2026-05-05 18:14 | 34.06151 | -116.71358 | 22261 ft | 319 kts | 264° |
| 2026-05-05 18:14 | 34.05905 | -116.74009 | 21938 ft | 317 kts | 264° |
| 2026-05-05 18:15 | 34.05661 | -116.76638 | 21599 ft | 314 kts | 264° |
| 2026-05-05 18:15 | 34.05417 | -116.79252 | 21294 ft | 312 kts | 264° |
| 2026-05-05 18:15 | 34.05175 | -116.81836 | 20975 ft | 309 kts | 264° |
| 2026-05-05 18:15 | 34.04933 | -116.84408 | 20671 ft | 307 kts | 264° |
| 2026-05-05 18:16 | 34.04693 | -116.86954 | 20364 ft | 305 kts | 264° |
| 2026-05-05 18:16 | 34.04447 | -116.89493 | 20064 ft | 304 kts | 263° |
| 2026-05-05 18:16 | 34.04135 | -116.92011 | 19737 ft | 303 kts | 261° |
| 2026-05-05 18:16 | 34.03797 | -116.94516 | 19426 ft | 302 kts | 261° |
| 2026-05-05 18:17 | 34.03465 | -116.96998 | 18988 ft | 306 kts | 262° |
| 2026-05-05 18:17 | 34.03131 | -116.99532 | 18709 ft | 304 kts | 262° |
| 2026-05-05 18:17 | 34.02801 | -117.02056 | 18475 ft | 300 kts | 262° |
| 2026-05-05 18:17 | 34.02491 | -117.04502 | 18171 ft | 298 kts | 262° |
| 2026-05-05 18:18 | 34.02198 | -117.06973 | 17836 ft | 297 kts | 263° |
| 2026-05-05 18:18 | 34.01910 | -117.09437 | 17520 ft | 296 kts | 263° |
| 2026-05-05 18:18 | 34.01624 | -117.11874 | 17220 ft | 294 kts | 263° |
| 2026-05-05 18:18 | 34.01336 | -117.14320 | 16904 ft | 293 kts | 263° |
| 2026-05-05 18:19 | 34.01050 | -117.16741 | 16590 ft | 292 kts | 263° |
| 2026-05-05 18:19 | 34.00760 | -117.19168 | 16284 ft | 290 kts | 263° |
| 2026-05-05 18:19 | 34.00473 | -117.21569 | 15985 ft | 289 kts | 263° |
| 2026-05-05 18:19 | 34.00189 | -117.23948 | 15695 ft | 287 kts | 263° |
| 2026-05-05 18:20 | 33.99905 | -117.26322 | 15407 ft | 285 kts | 263° |
| 2026-05-05 18:20 | 33.99621 | -117.28683 | 15118 ft | 285 kts | 263° |
| 2026-05-05 18:20 | 33.99337 | -117.31054 | 14835 ft | 286 kts | 263° |
| 2026-05-05 18:20 | 33.99056 | -117.33430 | 14531 ft | 286 kts | 263° |
| 2026-05-05 18:21 | 33.98781 | -117.35778 | 14247 ft | 288 kts | 263° |
| 2026-05-05 18:21 | 33.98501 | -117.38168 | 13937 ft | 289 kts | 263° |
| 2026-05-05 18:21 | 33.98219 | -117.40567 | 13616 ft | 288 kts | 263° |
| 2026-05-05 18:21 | 33.97938 | -117.42954 | 13293 ft | 288 kts | 263° |
| 2026-05-05 18:22 | 33.97657 | -117.45334 | 13002 ft | 287 kts | 263° |
| 2026-05-05 18:22 | 33.97378 | -117.47715 | 12688 ft | 286 kts | 264° |
| 2026-05-05 18:22 | 33.97491 | -117.50075 | 12396 ft | 282 kts | 285° |
| 2026-05-05 18:22 | 33.98027 | -117.52335 | 12125 ft | 280 kts | 287° |
| 2026-05-05 18:23 | 33.98576 | -117.54592 | 11832 ft | 280 kts | 287° |
| 2026-05-05 18:23 | 33.99119 | -117.56841 | 11542 ft | 279 kts | 286° |
| 2026-05-05 18:23 | 33.99657 | -117.59083 | 11252 ft | 279 kts | 286° |
| 2026-05-05 18:23 | 34.00193 | -117.61339 | 10947 ft | 280 kts | 286° |
| 2026-05-05 18:24 | 34.00725 | -117.63589 | 10649 ft | 280 kts | 286° |
| 2026-05-05 18:24 | 34.01258 | -117.65851 | 10343 ft | 279 kts | 286° |
| 2026-05-05 18:24 | 34.01789 | -117.68105 | 10108 ft | 277 kts | 287° |
| 2026-05-05 18:24 | 34.02157 | -117.70361 | 10039 ft | 274 kts | 276° |
| 2026-05-05 18:25 | 34.02240 | -117.72625 | 9990 ft | 270 kts | 270° |
| 2026-05-05 18:25 | 34.02220 | -117.73368 | 9987 ft | 268 kts | 268° |
| 2026-05-05 18:25 | 34.01874 | -117.76981 | 9971 ft | 254 kts | 264° |
| 2026-05-05 18:25 | 34.01636 | -117.79039 | 9961 ft | 242 kts | 264° |
| 2026-05-05 18:26 | 34.01415 | -117.81052 | 9629 ft | 241 kts | 264° |
| 2026-05-05 18:26 | 34.01203 | -117.83029 | 9308 ft | 237 kts | 264° |
| 2026-05-05 18:26 | 34.00994 | -117.84986 | 8972 ft | 233 kts | 264° |
| 2026-05-05 18:26 | 34.00790 | -117.86896 | 8681 ft | 228 kts | 264° |
| 2026-05-05 18:27 | 34.00590 | -117.88769 | 8398 ft | 224 kts | 264° |
| 2026-05-05 18:27 | 34.00392 | -117.90623 | 8094 ft | 221 kts | 264° |
| 2026-05-05 18:27 | 34.00197 | -117.92452 | 7788 ft | 219 kts | 264° |
| 2026-05-05 18:27 | 34.00005 | -117.94260 | 7512 ft | 216 kts | 264° |
| 2026-05-05 18:28 | 33.99623 | -117.97863 | 6941 ft | 216 kts | 264° |
| 2026-05-05 18:28 | 33.99434 | -117.99655 | 6675 ft | 215 kts | 264° |
| 2026-05-05 18:28 | 33.99241 | -118.01465 | 6389 ft | 220 kts | 264° |
| 2026-05-05 18:29 | 33.99048 | -118.03303 | 6073 ft | 223 kts | 264° |
| 2026-05-05 18:29 | 33.98850 | -118.05172 | 5760 ft | 225 kts | 264° |
| 2026-05-05 18:29 | 33.98654 | -118.07038 | 5457 ft | 224 kts | 263° |
| 2026-05-05 18:29 | 33.98460 | -118.08880 | 5160 ft | 219 kts | 263° |
| 2026-05-05 18:30 | 33.98272 | -118.10673 | 4883 ft | 213 kts | 263° |
| 2026-05-05 18:30 | 33.98088 | -118.12427 | 4607 ft | 208 kts | 263° |
| 2026-05-05 18:30 | 33.97910 | -118.14122 | 4333 ft | 205 kts | 263° |
| 2026-05-05 18:30 | 33.97732 | -118.15824 | 4066 ft | 205 kts | 263° |
| 2026-05-05 18:31 | 33.97554 | -118.17527 | 3803 ft | 202 kts | 262° |
| 2026-05-05 18:31 | 33.97384 | -118.19158 | 3555 ft | 189 kts | 263° |
| 2026-05-05 18:31 | 33.97225 | -118.20688 | 3307 ft | 181 kts | 262° |
| 2026-05-05 18:31 | 33.97070 | -118.22176 | 3079 ft | 178 kts | 262° |
| 2026-05-05 18:32 | 33.96915 | -118.23664 | 2843 ft | 180 kts | 262° |
| 2026-05-05 18:32 | 33.96812 | -118.24652 | 2684 ft | 180 kts | 262° |
| 2026-05-05 18:32 | 33.96657 | -118.26147 | 2442 ft | 180 kts | 262° |
| 2026-05-05 18:32 | 33.96502 | -118.27643 | 2201 ft | 179 kts | 262° |
| 2026-05-05 18:33 | 33.96349 | -118.29120 | 1969 ft | 174 kts | 262° |
| 2026-05-05 18:33 | 33.96204 | -118.30528 | 1744 ft | 164 kts | 262° |
| 2026-05-05 18:33 | 33.96068 | -118.31845 | 1500 ft | 153 kts | 262° |
| 2026-05-05 18:33 | 33.95941 | -118.33078 | 1364 ft | 149 kts | 262° |
| 2026-05-05 18:34 | 33.95811 | -118.34334 | 1135 ft | 151 kts | 261° |
| 2026-05-05 18:34 | 33.95683 | -118.35583 | 953 ft | 150 kts | 263° |
| 2026-05-05 18:34 | 33.95565 | -118.36824 | 757 ft | 146 kts | 262° |
| 2026-05-05 18:34 | 33.95430 | -118.38030 | 523 ft | 149 kts | 260° |
| 2026-05-05 18:35 | 33.95310 | -118.39259 | 316 ft | 146 kts | 262° |
| 2026-05-05 18:35 | 33.95172 | -118.40505 | 502 ft | 160 kts | 262° |
| 2026-05-05 18:35 | 33.95018 | -118.41908 | 1188 ft | 194 kts | 261° |
| 2026-05-05 18:35 | 33.94797 | -118.43686 | 1219 ft | 217 kts | 262° |
| 2026-05-05 18:36 | 33.94641 | -118.45446 | 1359 ft | 203 kts | 264° |
| 2026-05-05 18:36 | 33.94533 | -118.47049 | 1581 ft | 180 kts | 263° |
| 2026-05-05 18:36 | 33.94397 | -118.48510 | 1903 ft | 176 kts | 261° |
| 2026-05-05 18:36 | 33.93938 | -118.49860 | 2229 ft | 178 kts | 227° |
| 2026-05-05 18:37 | 33.92841 | -118.50507 | 2729 ft | 183 kts | 186° |
| 2026-05-05 18:37 | 33.91598 | -118.50162 | 2963 ft | 189 kts | 149° |
| 2026-05-05 18:37 | 33.90746 | -118.48959 | 3017 ft | 193 kts | 120° |
| 2026-05-05 18:37 | 33.90309 | -118.47427 | 3001 ft | 193 kts | 101° |
| 2026-05-05 18:38 | 33.90056 | -118.45833 | 3008 ft | 195 kts | 102° |
| 2026-05-05 18:38 | 33.89797 | -118.44223 | 3010 ft | 198 kts | 101° |
| 2026-05-05 18:38 | 33.89532 | -118.42587 | 3004 ft | 201 kts | 102° |
| 2026-05-05 18:38 | 33.89251 | -118.40850 | 3043 ft | 220 kts | 102° |
| 2026-05-05 18:39 | 33.88955 | -118.39024 | 2998 ft | 221 kts | 102° |
| 2026-05-05 18:39 | 33.88666 | -118.37226 | 2990 ft | 214 kts | 101° |
| 2026-05-05 18:39 | 33.88390 | -118.35501 | 2993 ft | 212 kts | 99° |
| 2026-05-05 18:39 | 33.88430 | -118.33724 | 2999 ft | 214 kts | 81° |
| 2026-05-05 18:40 | 33.88649 | -118.31947 | 3011 ft | 216 kts | 82° |
| 2026-05-05 18:40 | 33.88873 | -118.30156 | 2998 ft | 216 kts | 82° |
| 2026-05-05 18:40 | 33.89102 | -118.28360 | 3006 ft | 216 kts | 81° |
| 2026-05-05 18:40 | 33.89329 | -118.26566 | 2999 ft | 216 kts | 82° |
| 2026-05-05 18:41 | 33.89555 | -118.24782 | 2998 ft | 216 kts | 81° |
| 2026-05-05 18:41 | 33.89785 | -118.22998 | 3000 ft | 215 kts | 82° |
| 2026-05-05 18:41 | 33.90022 | -118.21225 | 2991 ft | 213 kts | 82° |
| 2026-05-05 18:41 | 33.90255 | -118.19485 | 2975 ft | 207 kts | 82° |
| 2026-05-05 18:42 | 33.90627 | -118.17860 | 2959 ft | 199 kts | 55° |
| 2026-05-05 18:42 | 33.91721 | -118.16948 | 2992 ft | 195 kts | 8° |
| 2026-05-05 18:42 | 33.93070 | -118.16815 | 3001 ft | 195 kts | 1° |
| 2026-05-05 18:42 | 33.94417 | -118.16714 | 3001 ft | 194 kts | 2° |
| 2026-05-05 18:43 | 33.95761 | -118.16754 | 2959 ft | 191 kts | 338° |
| 2026-05-05 18:43 | 33.96688 | -118.17754 | 2993 ft | 184 kts | 292° |
| 2026-05-05 18:43 | 33.97025 | -118.19278 | 2721 ft | 191 kts | 281° |
| 2026-05-05 18:43 | 33.97125 | -118.20832 | 2399 ft | 183 kts | 266° |
| 2026-05-05 18:44 | 33.97029 | -118.22315 | 2114 ft | 175 kts | 263° |
| 2026-05-05 18:44 | 33.96896 | -118.23761 | 2038 ft | 175 kts | 262° |
| 2026-05-05 18:44 | 33.96750 | -118.25210 | 2002 ft | 175 kts | 262° |
| 2026-05-05 18:44 | 33.96598 | -118.26682 | 2003 ft | 179 kts | 262° |
| 2026-05-05 18:45 | 33.96445 | -118.28173 | 1995 ft | 179 kts | 262° |
| 2026-05-05 18:45 | 33.96290 | -118.29662 | 1868 ft | 182 kts | 262° |
| 2026-05-05 18:45 | 33.96135 | -118.31168 | 1671 ft | 178 kts | 261° |
| 2026-05-05 18:45 | 33.95989 | -118.32596 | 1425 ft | 166 kts | 261° |
| 2026-05-05 18:46 | 33.95852 | -118.33919 | 1187 ft | 152 kts | 262° |
| 2026-05-05 18:46 | 33.95725 | -118.35159 | 1016 ft | 147 kts | 263° |
| 2026-05-05 18:46 | 33.95611 | -118.36356 | 819 ft | 147 kts | 263° |
| 2026-05-05 18:46 | 33.95489 | -118.37608 | 645 ft | 156 kts | 261° |
| 2026-05-05 18:47 | 33.95341 | -118.38913 | 390 ft | 152 kts | 262° |
| 2026-05-05 18:47 | 33.95213 | -118.40182 | 170 ft | 152 kts | 262° |
| 2026-05-05 18:47 | 33.95094 | -118.41342 | 125 ft | 125 kts | 263° |
| 2026-05-05 18:47 | 33.95001 | -118.42232 | 125 ft | 89 kts | 262° |
| 2026-05-05 18:48 | 33.94935 | -118.42853 | 125 ft | 67 kts | 262° |
| 2026-05-05 18:48 | 33.94876 | -118.43099 | 121 ft | 8 kts | 190° |
| 2026-05-05 18:48 | 33.94825 | -118.43092 | 123 ft | 1 kts | 172° |
| 2026-05-05 18:48 | 33.94812 | -118.43090 | 122 ft | 3 kts | 172° |
| 2026-05-05 18:49 | 33.94811 | -118.43090 | 122 ft | 1 kts | 172° |
| 2026-05-05 18:50 | 33.94739 | -118.43078 | 123 ft | 19 kts | 172° |
| 2026-05-05 18:50 | 33.94633 | -118.42969 | 123 ft | 22 kts | 121° |
| 2026-05-05 18:50 | 33.94628 | -118.42786 | 122 ft | 22 kts | 84° |
| 2026-05-05 18:50 | 33.94643 | -118.42607 | 125 ft | 21 kts | 84° |
| 2026-05-05 18:51 | 33.94661 | -118.42429 | 122 ft | 21 kts | 83° |
| 2026-05-05 18:51 | 33.94680 | -118.42255 | 124 ft | 24 kts | 83° |
| 2026-05-05 18:51 | 33.94707 | -118.42008 | 125 ft | 36 kts | 82° |
| 2026-05-05 18:51 | 33.94739 | -118.41677 | 125 ft | 41 kts | 83° |
| 2026-05-05 18:52 | 33.94781 | -118.41346 | 125 ft | 39 kts | 80° |
| 2026-05-05 18:52 | 33.94827 | -118.40982 | 125 ft | 48 kts | 83° |
| 2026-05-05 18:52 | 33.94860 | -118.40625 | 125 ft | 27 kts | 89° |
| 2026-05-05 18:52 | 33.94815 | -118.40588 | 122 ft | 8 kts | 173° |
| 2026-05-05 18:53 | 33.94789 | -118.40558 | 122 ft | 11 kts | 103° |
| 2026-05-05 18:53 | 33.94798 | -118.40452 | 125 ft | 13 kts | 83° |
| 2026-05-05 18:53 | 33.94809 | -118.40347 | 125 ft | 13 kts | 83° |
| 2026-05-05 18:53 | 33.94816 | -118.40258 | 125 ft | 9 kts | 87° |
| 2026-05-05 18:54 | 33.94808 | -118.40187 | 124 ft | 9 kts | 126° |
| 2026-05-05 18:54 | 33.94794 | -118.40175 | 122 ft | 0 kts | 150° |